Terminal Aerodrome Forecast
Issued by NWS Mt. Holly, NJ

Home | Current Version | Previous Version | Text Only | Print | Product List | Glossary On
Versions: 1 2 3 4 5 6 7 8 9 10 11 12 13 14 15 16 17 18
220
FTUS41 KPHI 290908 AAA
TAFABE
TAF AMD
KABE 290908Z 2909/3006 VRB03KT 4SM -RA BR SCT030 OVC080
      TEMPO 2909/2911 2SM +RA BR OVC015
     FM291100 03006KT 4SM -SHRA BR OVC015
     FM291400 01008KT P6SM OVC025
     FM291700 02008KT P6SM BKN035
     FM292200 VRB03KT P6SM SCT045=

USA.gov is the U.S. government's official web portal to all federal, state and local government web resources and services.